Time;durP1;ratioP1;P1;durP2;ratioP2;P2;SDS_P1;SDS_P2;PMS_P1;PMS_P2;Temp;Humidity;BMP_temperature;BMP_pressure;BME280_temperature;BME280_humidity;BME280_pressure;Samples;Min_cycle;Max_cycle;Signal;HPM_P1;HPM_P2
2023/09/10 00:00:37;;;;;;;5.70;3.72;;;24.70;99.90;;;;;;4991655;28;20541;-88
2023/09/10 00:03:03;;;;;;;5.57;3.90;;;24.70;99.90;;;;;;4991723;28;20034;-88
2023/09/10 00:05:31;;;;;;;4.82;3.80;;;24.70;99.90;;;;;;4991244;28;20018;-88
2023/09/10 00:07:57;;;;;;;4.30;3.90;;;24.70;99.90;;;;;;4990408;28;20427;-90
2023/09/10 00:10:23;;;;;;;4.22;3.53;;;24.70;99.90;;;;;;4991967;28;20038;-89
2023/09/10 00:12:49;;;;;;;8.18;4.10;;;24.80;99.90;;;;;;4992466;28;20169;-90
2023/09/10 00:15:14;;;;;;;5.97;4.30;;;24.60;99.90;;;;;;4989716;28;20116;-90
2023/09/10 00:17:40;;;;;;;5.40;3.78;;;24.60;99.90;;;;;;4991344;28;20031;-89
2023/09/10 00:20:07;;;;;;;4.97;4.00;;;24.60;99.90;;;;;;4990252;28;20030;-89
2023/09/10 00:22:33;;;;;;;6.32;3.90;;;24.60;99.90;;;;;;4991428;28;20023;-88
2023/09/10 00:24:58;;;;;;;6.90;4.10;;;24.60;99.90;;;;;;4991067;28;20053;-88
2023/09/10 00:27:24;;;;;;;7.38;4.15;;;24.60;99.90;;;;;;4990745;28;20034;-90
2023/09/10 00:29:50;;;;;;;5.60;4.00;;;24.50;99.90;;;;;;4991928;28;20057;-90
2023/09/10 00:32:16;;;;;;;6.55;4.13;;;24.50;99.90;;;;;;4990295;28;20030;-90
2023/09/10 00:34:41;;;;;;;9.73;4.28;;;24.60;99.90;;;;;;4991050;28;20027;-88
2023/09/10 00:37:07;;;;;;;5.60;4.00;;;24.50;99.90;;;;;;4991065;28;20045;-89
2023/09/10 00:39:33;;;;;;;9.35;3.95;;;24.50;99.90;;;;;;4990955;28;20062;-89
2023/09/10 00:41:58;;;;;;;5.70;4.65;;;24.40;99.90;;;;;;4991339;28;20022;-91
2023/09/10 00:44:24;;;;;;;6.43;4.60;;;24.40;99.90;;;;;;4991764;28;20399;-90
2023/09/10 00:46:53;;;;;;;5.75;4.43;;;24.30;99.90;;;;;;4990931;28;20435;-88
2023/09/10 00:49:20;;;;;;;11.05;4.95;;;24.40;99.90;;;;;;4989727;28;20026;-88
2023/09/10 00:51:47;;;;;;;9.52;5.10;;;24.40;99.90;;;;;;4989207;28;20664;-87
2023/09/10 00:54:15;;;;;;;8.05;5.30;;;24.40;99.90;;;;;;4989634;28;20033;-89
2023/09/10 00:56:40;;;;;;;;;;;24.50;99.90;;;;;;4991030;28;20092;-89
2023/09/10 00:59:08;;;;;;;12.68;5.68;;;24.50;99.90;;;;;;4990698;28;20000;-90
2023/09/10 01:01:35;;;;;;;10.32;5.70;;;24.40;99.90;;;;;;4990630;28;20019;-91
2023/09/10 01:04:01;;;;;;;12.20;5.72;;;24.50;99.90;;;;;;4990475;28;20391;-89
2023/09/10 01:06:27;;;;;;;9.65;6.30;;;24.60;99.90;;;;;;4990169;28;20085;-88
2023/09/10 01:08:52;;;;;;;8.55;5.50;;;24.50;99.90;;;;;;4991554;28;20026;-87
2023/09/10 01:11:25;;;;;;;10.65;5.90;;;24.60;99.90;;;;;;4989124;28;20029;-89
2023/09/10 01:14:10;;;;;;;7.40;5.47;;;24.30;99.90;;;;;;4989201;28;20169;-88
2023/09/10 01:16:41;;;;;;;7.97;5.72;;;24.50;99.90;;;;;;4989665;28;20041;-89
2023/09/10 01:19:39;;;;;;;9.55;5.97;;;24.50;99.90;;;;;;4990157;28;20022;-89
2023/09/10 01:22:36;;;;;;;14.80;6.35;;;24.50;99.90;;;;;;4989722;28;20019;-89
2023/09/10 01:25:02;;;;;;;10.90;5.70;;;24.50;99.90;;;;;;4988983;28;20034;-89
2023/09/10 01:27:28;;;;;;;9.93;5.57;;;24.50;99.90;;;;;;4990222;28;20048;-87
2023/09/10 01:29:54;;;;;;;11.57;5.88;;;24.30;99.90;;;;;;4991024;28;20022;-88
2023/09/10 01:32:34;;;;;;;12.88;5.72;;;24.40;99.90;;;;;;4988826;28;20045;-90
2023/09/10 01:35:20;;;;;;;11.07;5.93;;;24.30;99.90;;;;;;4990166;28;20022;-87
2023/09/10 01:38:01;;;;;;;11.18;5.90;;;24.20;99.90;;;;;;4989978;28;20122;-90
2023/09/10 01:40:34;;;;;;;11.88;6.32;;;24.10;99.90;;;;;;4988914;28;20026;-89
2023/09/10 01:43:05;;;;;;;8.98;6.22;;;24.20;99.90;;;;;;4990100;28;20018;-89
2023/09/10 01:45:34;;;;;;;8.10;5.55;;;24.20;99.90;;;;;;4990299;28;20035;-90
2023/09/10 01:48:00;;;;;;;8.77;5.65;;;24.20;99.90;;;;;;4989885;28;20023;-88
2023/09/10 01:50:28;;;;;;;10.20;5.63;;;24.30;99.90;;;;;;4990523;28;20030;-90
2023/09/10 01:52:54;;;;;;;;;;;24.10;99.90;;;;;;4990991;28;20058;-90
2023/09/10 01:55:19;;;;;;;12.38;5.80;;;24.20;99.90;;;;;;4989649;28;19972;-89
2023/09/10 01:57:45;;;;;;;10.95;5.70;;;24.10;99.90;;;;;;4989318;28;20053;-88
2023/09/10 02:00:11;;;;;;;8.98;5.65;;;24.10;99.90;;;;;;4989723;28;20026;-90
2023/09/10 02:02:37;;;;;;;9.27;5.82;;;24.10;99.90;;;;;;4989866;28;20029;-89
2023/09/10 02:05:02;;;;;;;8.50;5.88;;;24.20;99.90;;;;;;4989995;28;20034;-89
2023/09/10 02:07:28;;;;;;;8.00;6.00;;;24.20;99.90;;;;;;4990603;28;20037;-90
2023/09/10 02:09:54;;;;;;;11.90;5.70;;;24.20;99.90;;;;;;4989662;28;20027;-90
2023/09/10 02:12:19;;;;;;;9.20;5.60;;;24.20;99.90;;;;;;4989476;28;20089;-89
2023/09/10 02:14:48;;;;;;;9.60;5.90;;;24.20;99.90;;;;;;4988020;28;20026;-89
2023/09/10 02:17:14;;;;;;;8.90;6.00;;;24.20;99.90;;;;;;4989597;28;20056;-87
2023/09/10 02:19:40;;;;;;;9.50;5.50;;;24.10;99.90;;;;;;4989581;28;20390;-87
2023/09/10 02:22:05;;;;;;;6.68;5.00;;;24.10;99.90;;;;;;4988339;28;20026;-88
2023/09/10 02:24:31;;;;;;;9.25;5.30;;;24.10;99.90;;;;;;4989553;28;20066;-87
2023/09/10 02:26:56;;;;;;;12.35;5.35;;;24.20;99.90;;;;;;4990962;28;20442;-89
2023/09/10 02:29:22;;;;;;;7.63;5.75;;;24.20;99.90;;;;;;4993224;28;20030;-88
2023/09/10 02:31:48;;;;;;;7.95;5.68;;;24.20;99.90;;;;;;4992206;28;20149;-91
2023/09/10 02:34:13;;;;;;;6.28;5.30;;;24.20;99.90;;;;;;4993320;28;20080;-89
2023/09/10 02:36:39;;;;;;;10.00;5.70;;;24.30;99.90;;;;;;4993346;28;20057;-88
2023/09/10 02:39:04;;;;;;;9.80;6.20;;;24.20;99.90;;;;;;4993237;28;20041;-89
2023/09/10 02:41:31;;;;;;;9.57;5.32;;;24.30;99.90;;;;;;4992983;28;20113;-89
2023/09/10 02:43:56;;;;;;;7.88;5.43;;;24.30;99.90;;;;;;4994051;28;20022;-88
2023/09/10 02:46:23;;;;;;;9.43;6.03;;;24.30;99.90;;;;;;4992949;28;20509;-90
2023/09/10 02:48:49;;;;;;;9.52;5.22;;;24.20;99.90;;;;;;4992058;28;20019;-90
2023/09/10 02:51:14;;;;;;;6.53;5.50;;;24.20;99.90;;;;;;4993105;28;20038;-89
2023/09/10 02:53:40;;;;;;;6.30;5.45;;;24.20;99.90;;;;;;4991970;28;20030;-89
2023/09/10 02:56:06;;;;;;;7.53;5.35;;;24.10;99.90;;;;;;4993049;28;20517;-90
2023/09/10 02:58:32;;;;;;;9.23;5.28;;;24.20;99.90;;;;;;4993773;28;20030;-88
2023/09/10 03:01:05;;;;;;;11.00;5.53;;;24.10;99.90;;;;;;4993769;28;20101;-89
2023/09/10 03:03:32;;;;;;;10.10;5.97;;;24.00;99.90;;;;;;4993780;28;20494;-89
2023/09/10 03:05:57;;;;;;;10.27;5.57;;;24.00;99.90;;;;;;4992687;28;20022;-90
2023/09/10 03:08:23;;;;;;;8.07;5.60;;;24.00;99.90;;;;;;4992783;28;20029;-89
2023/09/10 03:10:48;;;;;;;7.18;5.47;;;24.00;99.90;;;;;;4992477;28;20368;-90
2023/09/10 03:13:14;;;;;;;7.88;5.15;;;24.00;99.90;;;;;;4991571;28;20105;-90
2023/09/10 03:15:40;;;;;;;8.70;5.50;;;24.00;99.90;;;;;;4991333;28;20037;-88
2023/09/10 03:18:05;;;;;;;11.95;5.55;;;24.10;99.90;;;;;;4992559;28;20474;-89
2023/09/10 03:20:31;;;;;;;8.70;5.28;;;24.00;99.90;;;;;;4993323;28;20064;-90
2023/09/10 03:22:59;;;;;;;6.63;5.20;;;24.00;99.90;;;;;;4991758;28;20034;-88
2023/09/10 03:25:25;;;;;;;7.93;5.10;;;24.00;99.90;;;;;;4992247;28;20129;-88
2023/09/10 03:27:50;;;;;;;6.45;5.00;;;24.00;99.90;;;;;;4992179;28;20034;-87
2023/09/10 03:30:17;;;;;;;13.95;4.95;;;24.00;99.90;;;;;;4992098;28;20368;-88
2023/09/10 03:32:42;;;;;;;8.98;5.38;;;24.00;99.90;;;;;;4992310;28;20026;-90
2023/09/10 03:35:10;;;;;;;7.82;5.43;;;24.00;99.90;;;;;;4992094;28;20084;-89
2023/09/10 03:37:36;;;;;;;11.30;6.03;;;23.90;99.90;;;;;;4992355;28;20027;-89
2023/09/10 03:40:04;;;;;;;7.72;5.95;;;23.90;99.90;;;;;;4990097;28;20031;-88
2023/09/10 03:42:30;;;;;;;9.23;5.82;;;23.80;99.90;;;;;;4993134;28;20495;-88
2023/09/10 03:44:55;;;;;;;6.68;5.13;;;23.80;99.90;;;;;;4991088;28;20036;-88
2023/09/10 03:47:21;;;;;;;8.00;5.93;;;23.70;99.90;;;;;;4992013;28;20042;-89
2023/09/10 03:49:46;;;;;;;8.93;6.45;;;23.50;99.90;;;;;;4991986;28;20050;-88
2023/09/10 03:52:20;;;;;;;8.70;5.97;;;23.40;99.90;;;;;;4991638;28;20502;-89
2023/09/10 03:54:46;;;;;;;9.38;5.97;;;23.10;99.90;;;;;;4989756;28;20030;-88
2023/09/10 03:57:12;;;;;;;10.73;5.88;;;23.10;99.90;;;;;;4972641;28;20123;-88
2023/09/10 03:59:37;;;;;;;14.07;6.10;;;23.20;99.90;;;;;;4972375;28;20026;-88
2023/09/10 04:02:03;;;;;;;7.72;5.50;;;23.40;99.90;;;;;;4988029;28;20394;-89
2023/09/10 04:04:29;;;;;;;7.53;5.40;;;23.40;99.90;;;;;;4971129;28;20023;-89
2023/09/10 04:06:55;;;;;;;6.68;5.25;;;23.40;99.90;;;;;;4972279;28;20572;-89
2023/09/10 04:09:20;;;;;;;8.75;5.68;;;23.50;99.90;;;;;;4972006;28;20033;-90
2023/09/10 04:11:46;;;;;;;8.25;5.78;;;23.50;99.90;;;;;;4981217;28;20109;-90
2023/09/10 04:14:11;;;;;;;6.88;5.40;;;23.60;99.90;;;;;;4990584;28;20066;-89
2023/09/10 04:16:37;;;;;;;7.93;5.30;;;23.50;99.90;;;;;;4991307;28;20031;-89
2023/09/10 04:19:03;;;;;;;8.05;5.10;;;23.50;99.90;;;;;;4991024;28;20482;-88
2023/09/10 04:21:28;;;;;;;6.90;5.30;;;23.50;99.90;;;;;;4990159;28;20039;-87
2023/09/10 04:23:54;;;;;;;8.10;5.50;;;23.50;99.90;;;;;;4991311;28;20553;-89
2023/09/10 04:26:19;;;;;;;9.35;5.28;;;23.60;99.90;;;;;;4990930;28;20042;-88
2023/09/10 04:28:45;;;;;;;6.60;5.00;;;23.50;99.90;;;;;;4990535;28;20097;-87
2023/09/10 04:31:16;;;;;;;6.65;5.25;;;23.50;99.90;;;;;;4971620;28;20034;-87
2023/09/10 04:33:42;;;;;;;7.45;5.50;;;23.60;99.90;;;;;;4970532;28;20372;-87
2023/09/10 04:36:09;;;;;;;7.25;5.53;;;23.60;99.90;;;;;;4971659;28;20046;-84
2023/09/10 04:38:34;;;;;;;8.75;5.43;;;23.60;99.90;;;;;;4972325;28;20019;-86
2023/09/10 04:41:00;;;;;;;7.53;5.70;;;23.50;99.90;;;;;;4971394;28;20034;-85
2023/09/10 04:43:26;;;;;;;8.18;5.18;;;23.50;99.90;;;;;;4971327;28;20030;-87
2023/09/10 04:45:52;;;;;;;7.95;5.60;;;23.50;99.90;;;;;;4971676;28;20085;-84
2023/09/10 04:48:17;;;;;;;7.10;5.32;;;23.50;99.90;;;;;;4971345;28;20026;-85
2023/09/10 04:50:43;;;;;;;7.75;5.70;;;23.40;99.90;;;;;;4970428;28;20082;-85
2023/09/10 04:53:10;;;;;;;10.35;5.82;;;23.50;99.90;;;;;;4971117;28;20019;-84
2023/09/10 04:55:36;;;;;;;8.15;5.90;;;23.40;99.90;;;;;;4971613;28;20411;-88
2023/09/10 04:58:01;;;;;;;8.02;5.85;;;23.40;99.90;;;;;;4971120;28;20523;-85
2023/09/10 05:00:27;;;;;;;9.18;5.53;;;23.50;99.90;;;;;;4971158;28;20798;-85
2023/09/10 05:02:53;;;;;;;9.05;5.50;;;23.40;99.90;;;;;;4971369;28;20027;-85
2023/09/10 05:05:18;;;;;;;9.10;5.85;;;23.40;99.90;;;;;;4986331;28;20030;-85
2023/09/10 05:07:48;;;;;;;8.63;5.18;;;23.40;99.90;;;;;;4989937;28;20394;-87
2023/09/10 05:10:14;;;;;;;6.93;5.65;;;23.40;99.90;;;;;;4989887;28;20033;-86
2023/09/10 05:12:40;;;;;;;7.80;5.43;;;23.30;99.90;;;;;;5008482;28;20101;-86
2023/09/10 05:15:06;;;;;;;5.95;5.05;;;23.30;99.90;;;;;;5010554;28;20137;-86
2023/09/10 05:17:32;;;;;;;7.63;5.20;;;23.30;99.90;;;;;;5010008;28;20030;-86
2023/09/10 05:19:57;;;;;;;9.50;5.32;;;23.30;99.90;;;;;;5005290;28;20049;-88
2023/09/10 05:22:23;;;;;;;9.88;5.80;;;23.20;99.90;;;;;;4971085;28;20398;-87
2023/09/10 05:24:49;;;;;;;15.38;5.63;;;23.10;99.90;;;;;;4989675;28;20395;-84
2023/09/10 05:27:14;;;;;;;10.70;5.43;;;23.10;99.90;;;;;;4990167;28;20077;-87
2023/09/10 05:29:40;;;;;;;8.68;5.88;;;23.10;99.90;;;;;;4990184;28;20018;-84
2023/09/10 05:32:05;;;;;;;13.75;6.05;;;23.10;99.90;;;;;;4990869;28;20105;-88
2023/09/10 05:34:31;;;;;;;7.28;5.78;;;23.20;99.90;;;;;;4990111;28;20022;-86
2023/09/10 05:36:57;;;;;;;7.35;5.63;;;23.20;99.90;;;;;;4989121;28;20093;-86
2023/09/10 05:39:22;;;;;;;9.10;5.80;;;23.20;99.90;;;;;;4989891;28;20014;-88
2023/09/10 05:41:48;;;;;;;7.57;6.03;;;23.20;99.90;;;;;;4989871;28;20034;-86
2023/09/10 05:44:13;;;;;;;9.10;5.75;;;23.30;99.90;;;;;;4983185;28;20506;-86
2023/09/10 05:46:39;;;;;;;9.20;5.47;;;23.30;99.90;;;;;;4983715;28;20030;-86
2023/09/10 05:49:05;;;;;;;7.15;5.43;;;23.20;99.90;;;;;;4990017;28;20084;-86
2023/09/10 05:51:31;;;;;;;8.52;5.63;;;23.30;99.90;;;;;;4989510;28;20066;-84
2023/09/10 05:53:56;;;;;;;11.13;6.43;;;23.20;99.90;;;;;;4989289;28;20062;-88
2023/09/10 05:56:22;;;;;;;7.70;6.07;;;23.30;99.90;;;;;;4985708;28;20053;-85
2023/09/10 05:58:48;;;;;;;9.60;6.30;;;23.30;99.90;;;;;;5008909;28;20022;-85
2023/09/10 06:01:14;;;;;;;8.70;5.82;;;23.30;99.90;;;;;;5002004;28;20034;-89
2023/09/10 06:03:39;;;;;;;20.90;7.40;;;23.40;99.90;;;;;;4986412;28;20394;-87
2023/09/10 06:06:05;;;;;;;15.75;6.50;;;23.40;99.90;;;;;;4992370;28;20049;-86
2023/09/10 06:08:31;;;;;;;10.85;6.68;;;23.40;99.90;;;;;;4993214;28;20842;-85
2023/09/10 06:10:56;;;;;;;13.68;6.80;;;23.30;99.90;;;;;;4993272;28;20026;-86
2023/09/10 06:13:22;;;;;;;11.27;6.72;;;23.30;99.90;;;;;;4993332;28;20033;-86
2023/09/10 06:15:48;;;;;;;11.07;6.75;;;23.20;99.90;;;;;;4986269;28;20039;-86
2023/09/10 06:18:13;;;;;;;14.73;6.75;;;23.30;99.90;;;;;;4976178;28;20042;-86
2023/09/10 06:20:39;;;;;;;11.40;7.00;;;23.00;99.90;;;;;;4989023;28;20073;-84
2023/09/10 06:23:05;;;;;;;12.90;7.28;;;23.10;99.90;;;;;;4992154;28;20042;-86
2023/09/10 06:25:32;;;;;;;13.77;7.05;;;23.10;99.90;;;;;;4992241;28;20018;-86
2023/09/10 06:27:57;;;;;;;20.77;6.95;;;23.10;99.90;;;;;;4992012;28;20061;-87
2023/09/10 06:30:23;;;;;;;12.50;6.85;;;23.10;99.90;;;;;;4983093;28;20051;-85
2023/09/10 06:32:52;;;;;;;12.00;7.03;;;23.10;99.90;;;;;;4992274;28;20022;-84
2023/09/10 06:35:17;;;;;;;14.07;7.07;;;23.20;99.90;;;;;;4992060;28;20101;-86
2023/09/10 06:37:45;;;;;;;14.48;7.70;;;23.10;99.90;;;;;;4992381;28;20463;-84
2023/09/10 06:40:13;;;;;;;14.43;7.28;;;23.20;99.90;;;;;;5008081;28;20026;-85
2023/09/10 06:42:39;;;;;;;16.00;8.10;;;23.20;99.90;;;;;;5013128;28;20439;-85
2023/09/10 06:45:05;;;;;;;15.95;7.75;;;23.20;99.90;;;;;;5001433;28;20058;-85
2023/09/10 06:47:31;;;;;;;14.60;7.40;;;23.00;99.90;;;;;;4973190;28;20387;-85
2023/09/10 06:49:57;;;;;;;12.65;7.32;;;23.00;99.90;;;;;;4975562;28;20053;-85
2023/09/10 06:52:22;;;;;;;11.75;7.32;;;23.00;99.90;;;;;;4989282;28;20054;-85
2023/09/10 06:54:48;;;;;;;12.57;7.40;;;23.00;99.90;;;;;;4986946;28;20074;-84
2023/09/10 06:57:14;;;;;;;12.82;6.80;;;23.00;99.90;;;;;;4987870;28;20521;-85
2023/09/10 06:59:39;;;;;;;9.40;7.00;;;23.10;99.90;;;;;;4997173;28;20049;-85
2023/09/10 07:02:06;;;;;;;10.40;7.18;;;23.10;99.90;;;;;;5004109;28;20479;-85
2023/09/10 07:04:32;;;;;;;13.02;7.80;;;23.10;99.90;;;;;;5008037;28;20053;-85
2023/09/10 07:06:57;;;;;;;14.85;7.38;;;23.10;99.90;;;;;;5004320;28;20058;-87
2023/09/10 07:09:24;;;;;;;10.90;7.22;;;23.20;99.90;;;;;;5007653;28;20080;-85
2023/09/10 07:11:50;;;;;;;12.23;7.05;;;23.30;99.90;;;;;;5004775;28;20049;-87
2023/09/10 07:14:17;;;;;;;12.38;7.13;;;23.30;99.90;;;;;;5000172;28;20054;-86
2023/09/10 07:16:42;;;;;;;11.88;7.40;;;23.40;99.90;;;;;;5005989;28;20498;-86
2023/09/10 07:19:08;;;;;;;13.35;7.60;;;23.50;99.90;;;;;;5001582;28;20023;-87
2023/09/10 07:21:34;;;;;;;9.02;6.68;;;23.50;99.90;;;;;;4990621;28;20034;-87
2023/09/10 07:23:59;;;;;;;9.40;7.32;;;23.60;99.90;;;;;;4989843;28;20565;-88
2023/09/10 07:26:25;;;;;;;11.45;7.45;;;23.60;99.90;;;;;;4991697;28;20495;-88
2023/09/10 07:28:50;;;;;;;12.25;7.88;;;23.60;99.90;;;;;;4992009;28;20482;-90
2023/09/10 07:31:16;;;;;;;16.27;7.75;;;23.80;99.90;;;;;;4990774;28;20026;-89
2023/09/10 07:33:42;;;;;;;12.85;7.18;;;23.80;99.90;;;;;;4989742;28;20054;-88
2023/09/10 07:36:07;;;;;;;11.38;7.63;;;23.90;99.90;;;;;;4972289;28;20038;-87
2023/09/10 07:38:33;;;;;;;14.20;7.95;;;23.90;99.90;;;;;;4972286;28;20531;-87
2023/09/10 07:40:59;;;;;;;11.50;8.15;;;24.00;99.90;;;;;;4975433;28;20034;-87
2023/09/10 07:43:24;;;;;;;13.35;8.50;;;24.10;99.90;;;;;;4990787;28;20021;-88
2023/09/10 07:45:50;;;;;;;21.83;8.65;;;24.10;99.90;;;;;;4988576;28;20398;-91
2023/09/10 07:48:16;;;;;;;15.10;8.23;;;24.20;99.90;;;;;;4973408;28;20031;-92
2023/09/10 07:51:02;;;;;;;12.77;8.20;;;24.10;99.90;;;;;;4974452;28;20058;-90
2023/09/10 07:53:28;;;;;;;12.23;8.50;;;24.20;99.90;;;;;;4972415;28;20442;-85
2023/09/10 07:55:54;;;;;;;12.00;8.07;;;24.20;99.90;;;;;;4972258;28;20031;-85
2023/09/10 07:58:20;;;;;;;10.98;8.20;;;24.40;99.90;;;;;;4972302;28;20030;-86
2023/09/10 08:00:45;;;;;;;17.15;8.02;;;24.40;99.90;;;;;;4983899;28;20041;-83
2023/09/10 08:03:13;;;;;;;11.93;8.48;;;24.60;99.90;;;;;;4992441;28;20085;-86
2023/09/10 08:05:38;;;;;;;13.82;8.68;;;24.60;99.90;;;;;;4991581;28;20058;-84
2023/09/10 08:08:04;;;;;;;13.82;8.38;;;24.70;99.90;;;;;;4990357;28;20060;-86
2023/09/10 08:10:31;;;;;;;13.05;8.68;;;24.80;99.90;;;;;;4984623;28;20031;-84
2023/09/10 08:12:57;;;;;;;11.57;8.02;;;24.80;99.90;;;;;;4971989;28;20015;-85
2023/09/10 08:15:22;;;;;;;10.63;8.15;;;24.80;99.90;;;;;;4971966;28;20586;-85
2023/09/10 08:17:51;;;;;;;13.50;8.20;;;24.90;99.90;;;;;;4971901;28;20038;-86
2023/09/10 08:20:17;;;;;;;12.93;8.35;;;24.90;99.90;;;;;;4971992;28;20031;-83
2023/09/10 08:22:46;;;;;;;11.38;8.43;;;25.00;99.90;;;;;;4972659;28;20035;-84
2023/09/10 08:25:13;;;;;;;13.15;8.35;;;25.00;99.90;;;;;;4972332;28;20035;-87
2023/09/10 08:27:39;;;;;;;13.52;8.30;;;25.00;99.90;;;;;;4971840;28;20023;-85
2023/09/10 08:30:07;;;;;;;10.18;7.60;;;25.20;99.90;;;;;;4971667;28;20022;-85
2023/09/10 08:32:33;;;;;;;16.33;7.70;;;25.30;99.90;;;;;;4971656;28;20402;-86
2023/09/10 08:34:59;;;;;;;10.95;8.05;;;25.30;99.90;;;;;;4974261;28;20036;-86
2023/09/10 08:37:24;;;;;;;13.93;8.43;;;25.30;99.90;;;;;;4984124;28;20042;-86
2023/09/10 08:39:50;;;;;;;15.00;7.97;;;25.40;99.90;;;;;;4971544;28;20027;-87
2023/09/10 08:42:19;;;;;;;13.93;7.38;;;25.40;99.90;;;;;;4986947;28;20483;-90
2023/09/10 08:44:55;;;;;;;10.80;7.65;;;25.50;99.90;;;;;;4973413;28;20019;-84
2023/09/10 08:47:23;;;;;;;15.15;8.32;;;25.60;99.90;;;;;;4971287;28;20113;-87
2023/09/10 08:49:51;;;;;;;11.00;7.72;;;25.60;99.90;;;;;;4979893;28;20069;-89
2023/09/10 08:52:19;;;;;;;10.15;7.28;;;25.70;99.90;;;;;;4991531;28;20030;-88
2023/09/10 08:54:44;;;;;;;12.43;7.03;;;25.60;99.90;;;;;;4979048;28;20177;-89
2023/09/10 08:57:12;;;;;;;13.95;7.70;;;25.70;99.90;;;;;;4988136;28;20042;-90
2023/09/10 08:59:38;;;;;;;12.35;7.10;;;25.80;99.90;;;;;;4990362;28;20057;-88
2023/09/10 09:02:04;;;;;;;13.75;6.85;;;25.80;99.90;;;;;;4990175;28;20505;-86
2023/09/10 09:04:30;;;;;;;11.57;6.50;;;26.00;99.90;;;;;;4988789;28;20033;-88
2023/09/10 09:07:00;;;;;;;10.27;6.30;;;26.00;99.90;;;;;;4986998;28;20023;-85
2023/09/10 09:09:33;;;;;;;12.13;5.88;;;26.20;99.90;;;;;;4989826;28;20110;-85
2023/09/10 09:12:02;;;;;;;6.82;5.43;;;26.30;99.90;;;;;;4989602;28;20483;-85
2023/09/10 09:14:28;;;;;;;10.85;5.60;;;26.50;99.90;;;;;;4989723;28;20030;-85
2023/09/10 09:16:54;;;;;;;8.90;5.20;;;26.50;99.90;;;;;;4977254;28;20093;-85
2023/09/10 09:19:22;;;;;;;11.15;5.47;;;26.50;99.90;;;;;;4974208;28;20023;-82
2023/09/10 09:21:50;;;;;;;9.50;5.43;;;26.50;99.90;;;;;;4975842;28;20542;-87
2023/09/10 09:24:16;;;;;;;;;;;26.50;99.90;;;;;;5010449;28;20022;-83
2023/09/10 09:26:42;;;;;;;14.65;5.63;;;26.40;99.90;;;;;;5007969;28;19914;-84
2023/09/10 09:29:08;;;;;;;8.13;5.50;;;26.40;99.90;;;;;;4993632;28;20073;-83
2023/09/10 09:31:34;;;;;;;10.43;5.70;;;26.30;99.90;;;;;;4971815;28;20472;-85
2023/09/10 09:33:59;;;;;;;8.90;5.97;;;26.30;99.90;;;;;;4970045;28;20029;-85
2023/09/10 09:36:27;;;;;;;9.50;6.40;;;26.30;99.90;;;;;;4969577;28;20121;-85
2023/09/10 09:38:54;;;;;;;10.55;6.60;;;26.20;99.90;;;;;;4969608;28;20019;-85
2023/09/10 09:41:20;;;;;;;9.63;6.70;;;26.20;99.90;;;;;;4970029;28;20030;-85
2023/09/10 09:43:46;;;;;;;9.57;6.50;;;26.10;99.90;;;;;;4971726;28;20474;-87
2023/09/10 09:46:12;;;;;;;9.82;6.57;;;26.10;99.90;;;;;;4988976;28;20034;-84
2023/09/10 09:48:38;;;;;;;15.80;6.95;;;26.00;99.90;;;;;;4989134;28;20027;-86
2023/09/10 09:51:04;;;;;;;16.02;7.93;;;26.00;99.90;;;;;;4989220;28;20028;-85
2023/09/10 09:53:31;;;;;;;21.02;9.23;;;25.80;99.90;;;;;;4989201;28;20014;-87
2023/09/10 09:55:59;;;;;;;14.60;6.90;;;25.70;99.90;;;;;;4988980;28;20045;-85
2023/09/10 09:58:25;;;;;;;;;;;25.50;99.90;;;;;;4988808;28;20286;-86
2023/09/10 10:00:51;;;;;;;12.90;7.18;;;25.30;99.90;;;;;;5003907;28;19913;-85
2023/09/10 10:03:18;;;;;;;15.10;6.82;;;25.00;99.90;;;;;;4990077;28;20105;-85
2023/09/10 10:05:44;;;;;;;12.70;6.82;;;24.70;99.90;;;;;;4987986;28;20084;-87
2023/09/10 10:08:10;;;;;;;15.43;7.90;;;24.50;99.90;;;;;;4986497;28;20125;-86
2023/09/10 10:10:35;;;;;;;19.10;7.82;;;24.30;99.90;;;;;;4985048;28;20026;-84
2023/09/10 10:13:03;;;;;;;15.40;8.00;;;24.30;99.90;;;;;;4987589;28;20044;-84
2023/09/10 10:15:29;;;;;;;13.32;7.65;;;24.30;99.90;;;;;;4989085;28;20022;-85
2023/09/10 10:17:57;;;;;;;9.35;6.68;;;24.20;99.90;;;;;;4988812;28;20034;-85
2023/09/10 10:20:23;;;;;;;;;;;24.20;99.90;;;;;;4989449;28;20026;-85
2023/09/10 10:22:50;;;;;;;14.77;7.13;;;24.10;99.90;;;;;;4988666;28;19932;-90
2023/09/10 10:25:16;;;;;;;12.05;6.53;;;24.00;99.90;;;;;;4990296;28;20494;-91
2023/09/10 10:27:43;;;;;;;13.13;7.13;;;23.90;99.90;;;;;;4989755;28;20035;-92
2023/09/10 10:30:09;;;;;;;15.48;7.03;;;23.90;99.90;;;;;;4988553;28;20594;-89
2023/09/10 10:32:38;;;;;;;12.60;7.05;;;23.80;99.90;;;;;;4988561;28;20030;-88
2023/09/10 10:35:05;;;;;;;12.45;7.78;;;24.00;99.90;;;;;;4989586;28;20101;-91
2023/09/10 10:37:49;;;;;;;14.90;9.80;;;24.00;99.90;;;;;;4989525;28;20038;-91
2023/09/10 10:40:24;;;;;;;18.10;10.52;;;24.10;99.90;;;;;;4990328;28;20049;-89
2023/09/10 10:42:58;;;;;;;18.80;9.38;;;24.20;99.90;;;;;;4989878;28;20110;-90
2023/09/10 10:45:25;;;;;;;17.20;11.07;;;24.10;99.90;;;;;;4989743;28;20109;-89
2023/09/10 10:47:52;;;;;;;16.48;9.98;;;24.40;99.90;;;;;;4989937;28;20064;-93
2023/09/10 10:50:30;;;;;;;14.48;10.00;;;24.20;99.90;;;;;;4994355;28;20031;-91
2023/09/10 10:53:06;;;;;;;12.52;8.60;;;24.30;99.90;;;;;;5002393;28;20122;-91
2023/09/10 10:55:33;;;;;;;14.80;9.23;;;24.40;99.90;;;;;;4980929;28;20034;-91
2023/09/10 10:58:00;;;;;;;13.70;9.20;;;24.40;99.90;;;;;;4992183;28;20088;-91
2023/09/10 11:00:26;;;;;;;15.20;8.30;;;24.40;99.90;;;;;;4992592;28;20109;-89
2023/09/10 11:03:15;;;;;;;17.77;9.05;;;24.40;99.90;;;;;;4992872;28;20026;-88
2023/09/10 11:05:53;;;;;;;19.08;8.55;;;24.30;99.90;;;;;;4992881;28;20486;-90
2023/09/10 11:08:41;;;;;;;11.18;8.25;;;24.40;99.90;;;;;;4986659;28;20368;-90
2023/09/10 11:11:29;;;;;;;15.65;8.60;;;24.40;99.90;;;;;;4975714;28;20022;-89
2023/09/10 11:14:05;;;;;;;12.43;8.45;;;24.40;99.90;;;;;;4991722;28;20069;-89
2023/09/10 11:16:32;;;;;;;14.93;8.27;;;23.90;99.90;;;;;;4987043;28;20611;-91
2023/09/10 11:18:59;;;;;;;12.98;7.72;;;24.60;99.90;;;;;;4991259;28;20026;-91
2023/09/10 11:21:56;;;;;;;11.88;7.15;;;24.70;99.90;;;;;;4992306;28;20015;-89
2023/09/10 11:24:21;;;;;;;11.13;8.18;;;24.80;99.90;;;;;;4992034;28;20022;-88
2023/09/10 11:26:48;;;;;;;14.70;7.43;;;24.80;99.90;;;;;;4992033;28;20049;-88
2023/09/10 11:29:19;;;;;;;9.75;7.10;;;24.80;99.90;;;;;;4989511;28;20379;-88
2023/09/10 11:31:49;;;;;;;9.70;6.78;;;24.90;99.90;;;;;;4973719;28;20383;-90
2023/09/10 11:34:17;;;;;;;12.52;6.95;;;25.00;99.90;;;;;;4972861;28;20135;-88
2023/09/10 11:36:47;;;;;;;11.77;6.38;;;25.00;99.90;;;;;;4972085;28;20517;-83
2023/09/10 11:39:17;;;;;;;14.30;8.45;;;25.10;99.90;;;;;;4989586;28;20022;-85
2023/09/10 11:41:51;;;;;;;9.32;6.53;;;25.10;99.90;;;;;;4991497;28;20030;-83
2023/09/10 11:44:17;;;;;;;11.15;7.50;;;25.20;99.90;;;;;;4992280;28;20018;-86
2023/09/10 11:46:42;;;;;;;7.38;6.15;;;25.30;99.90;;;;;;4991500;28;20041;-84
2023/09/10 11:49:08;;;;;;;8.65;6.05;;;25.30;99.90;;;;;;4991096;28;20038;-83
2023/09/10 11:51:48;;;;;;;13.27;6.53;;;25.30;99.90;;;;;;4991225;28;20030;-82
2023/09/10 11:54:18;;;;;;;7.88;5.97;;;25.50;99.90;;;;;;4990824;28;20019;-84
2023/09/10 11:56:52;;;;;;;11.75;6.38;;;25.50;99.90;;;;;;4989866;28;20071;-83
2023/09/10 11:59:26;;;;;;;10.88;7.18;;;25.60;99.90;;;;;;4992138;28;20026;-85
2023/09/10 12:01:55;;;;;;;11.27;6.10;;;25.60;99.90;;;;;;4990797;28;20018;-87
2023/09/10 12:04:32;;;;;;;9.55;6.00;;;25.60;99.90;;;;;;4987693;28;20090;-83
2023/09/10 12:07:01;;;;;;;10.15;6.43;;;25.60;99.90;;;;;;4984653;28;20043;-85
2023/09/10 12:09:31;;;;;;;10.35;6.25;;;25.60;99.90;;;;;;4989228;28;20027;-86
2023/09/10 12:11:59;;;;;;;11.23;6.40;;;25.70;99.90;;;;;;4969360;28;20030;-86
2023/09/10 12:14:25;;;;;;;11.70;7.28;;;25.80;99.90;;;;;;4970993;28;20474;-86
2023/09/10 12:16:51;;;;;;;15.68;8.23;;;25.90;99.90;;;;;;4973895;28;20024;-85
2023/09/10 12:19:17;;;;;;;9.80;7.72;;;25.90;99.90;;;;;;4991199;28;20061;-84
2023/09/10 12:21:43;;;;;;;10.07;5.75;;;26.00;99.90;;;;;;4989116;28;20430;-86
2023/09/10 12:24:10;;;;;;;10.43;6.07;;;26.00;99.90;;;;;;4978132;28;20503;-87
2023/09/10 12:26:36;;;;;;;10.70;6.20;;;26.20;99.90;;;;;;4987694;28;20226;-86
2023/09/10 12:29:03;;;;;;;8.27;5.82;;;26.20;99.90;;;;;;4970812;28;20174;-88
2023/09/10 12:31:29;;;;;;;13.02;7.63;;;26.20;99.90;;;;;;4981328;28;20513;-86
2023/09/10 12:33:55;;;;;;;15.48;6.97;;;26.30;99.90;;;;;;4970892;28;20500;-85
2023/09/10 12:36:21;;;;;;;9.27;6.90;;;26.30;99.90;;;;;;4971094;28;20499;-85
2023/09/10 12:38:47;;;;;;;12.70;6.25;;;26.40;99.90;;;;;;4983761;28;20030;-85
2023/09/10 12:41:16;;;;;;;10.27;6.40;;;26.40;99.90;;;;;;4970197;28;20430;-86
2023/09/10 12:43:42;;;;;;;8.43;6.30;;;26.40;99.90;;;;;;4971095;28;20045;-83